sensor_id;sensor_type;location;lat;lon;timestamp;pressure;altitude;pressure_sealevel;temperature;humidity
69173;BME280;56280;49.662;8.408;2022-08-19T00:02:07;100299.69;;;20.97;68.12
69173;BME280;56280;49.662;8.408;2022-08-19T00:04:34;100303.81;;;20.92;68.47
69173;BME280;56280;49.662;8.408;2022-08-19T00:07:03;100285.88;;;20.85;68.50
69173;BME280;56280;49.662;8.408;2022-08-19T00:09:29;100299.13;;;20.80;68.71
69173;BME280;56280;49.662;8.408;2022-08-19T00:11:55;100268.56;;;20.51;68.98
69173;BME280;56280;49.662;8.408;2022-08-19T00:14:22;100295.00;;;20.77;68.73
69173;BME280;56280;49.662;8.408;2022-08-19T00:16:48;100306.25;;;20.87;68.58
69173;BME280;56280;49.662;8.408;2022-08-19T00:19:15;100307.75;;;20.90;68.15
69173;BME280;56280;49.662;8.408;2022-08-19T00:21:41;100288.19;;;20.88;68.03
69173;BME280;56280;49.662;8.408;2022-08-19T00:24:08;100287.81;;;20.91;68.00
69173;BME280;56280;49.662;8.408;2022-08-19T00:26:34;100268.22;;;20.82;68.34
69173;BME280;56280;49.662;8.408;2022-08-19T00:28:59;100265.13;;;20.85;68.30
69173;BME280;56280;49.662;8.408;2022-08-19T00:31:26;100261.16;;;20.81;68.20
69173;BME280;56280;49.662;8.408;2022-08-19T00:33:53;100266.16;;;20.84;68.02
69173;BME280;56280;49.662;8.408;2022-08-19T00:36:18;100272.25;;;20.93;67.91
69173;BME280;56280;49.662;8.408;2022-08-19T00:38:44;100261.59;;;20.85;68.18
69173;BME280;56280;49.662;8.408;2022-08-19T00:41:13;100268.91;;;20.91;68.30
69173;BME280;56280;49.662;8.408;2022-08-19T00:43:39;100265.34;;;20.84;68.17
69173;BME280;56280;49.662;8.408;2022-08-19T00:46:06;100261.38;;;20.86;68.37
69173;BME280;56280;49.662;8.408;2022-08-19T00:48:32;100239.28;;;20.69;68.47
69173;BME280;56280;49.662;8.408;2022-08-19T00:50:59;100248.63;;;20.73;68.46
69173;BME280;56280;49.662;8.408;2022-08-19T00:53:27;100231.31;;;20.61;68.53
69173;BME280;56280;49.662;8.408;2022-08-19T00:55:55;100247.97;;;20.65;68.89
69173;BME280;56280;49.662;8.408;2022-08-19T00:58:24;100237.53;;;20.62;68.80
69173;BME280;56280;49.662;8.408;2022-08-19T01:00:52;100253.78;;;20.68;68.79
69173;BME280;56280;49.662;8.408;2022-08-19T01:03:19;100246.78;;;20.74;68.46
69173;BME280;56280;49.662;8.408;2022-08-19T01:05:47;100240.69;;;20.65;68.65
69173;BME280;56280;49.662;8.408;2022-08-19T01:08:14;100242.72;;;20.63;68.84
69173;BME280;56280;49.662;8.408;2022-08-19T01:10:43;100244.28;;;20.72;68.70
69173;BME280;56280;49.662;8.408;2022-08-19T01:13:13;100240.94;;;20.70;68.98
69173;BME280;56280;49.662;8.408;2022-08-19T01:15:45;100237.97;;;20.65;68.86
69173;BME280;56280;49.662;8.408;2022-08-19T01:18:13;100241.78;;;20.71;68.84
69173;BME280;56280;49.662;8.408;2022-08-19T01:20:39;100255.34;;;20.84;68.66
69173;BME280;56280;49.662;8.408;2022-08-19T01:23:05;100255.16;;;20.86;68.40
69173;BME280;56280;49.662;8.408;2022-08-19T01:25:47;100254.28;;;20.79;68.45
69173;BME280;56280;49.662;8.408;2022-08-19T01:28:26;100230.75;;;20.66;68.41
69173;BME280;56280;49.662;8.408;2022-08-19T01:30:53;100255.94;;;20.80;68.47
69173;BME280;56280;49.662;8.408;2022-08-19T01:33:19;100238.84;;;20.66;68.62
69173;BME280;56280;49.662;8.408;2022-08-19T01:35:45;100239.91;;;20.71;68.65
69173;BME280;56280;49.662;8.408;2022-08-19T01:38:21;100244.72;;;20.76;68.47
69173;BME280;56280;49.662;8.408;2022-08-19T01:40:47;100254.50;;;20.77;68.76
69173;BME280;56280;49.662;8.408;2022-08-19T01:43:12;100261.97;;;20.82;68.84
69173;BME280;56280;49.662;8.408;2022-08-19T01:45:38;100253.00;;;20.74;68.60
69173;BME280;56280;49.662;8.408;2022-08-19T01:48:06;100258.38;;;20.68;69.25
69173;BME280;56280;49.662;8.408;2022-08-19T01:50:33;100257.13;;;20.70;69.41
69173;BME280;56280;49.662;8.408;2022-08-19T01:52:59;100238.50;;;20.54;69.79
69173;BME280;56280;49.662;8.408;2022-08-19T01:55:25;100243.13;;;20.60;70.07
69173;BME280;56280;49.662;8.408;2022-08-19T01:57:55;100250.28;;;20.68;69.52
69173;BME280;56280;49.662;8.408;2022-08-19T02:00:23;100246.75;;;20.67;69.47
69173;BME280;56280;49.662;8.408;2022-08-19T02:02:49;100256.34;;;20.76;68.86
69173;BME280;56280;49.662;8.408;2022-08-19T02:05:14;100256.19;;;20.85;68.46
69173;BME280;56280;49.662;8.408;2022-08-19T02:07:41;100238.34;;;20.84;67.99
69173;BME280;56280;49.662;8.408;2022-08-19T02:10:11;100267.69;;;20.93;68.12
69173;BME280;56280;49.662;8.408;2022-08-19T02:12:37;100258.69;;;20.86;68.41
69173;BME280;56280;49.662;8.408;2022-08-19T02:15:03;100271.94;;;20.81;69.08
69173;BME280;56280;49.662;8.408;2022-08-19T02:17:29;100257.25;;;20.62;69.19
69173;BME280;56280;49.662;8.408;2022-08-19T02:19:56;100256.59;;;20.60;69.58
69173;BME280;56280;49.662;8.408;2022-08-19T02:22:22;100259.94;;;20.62;69.48
69173;BME280;56280;49.662;8.408;2022-08-19T02:24:47;100227.25;;;20.50;69.25
69173;BME280;56280;49.662;8.408;2022-08-19T02:27:13;100253.78;;;20.68;69.35
69173;BME280;56280;49.662;8.408;2022-08-19T02:29:38;100254.22;;;20.72;69.38
69173;BME280;56280;49.662;8.408;2022-08-19T02:32:04;100242.81;;;20.48;70.42
69173;BME280;56280;49.662;8.408;2022-08-19T02:34:29;100262.94;;;20.46;70.89
69173;BME280;56280;49.662;8.408;2022-08-19T02:36:54;100260.63;;;20.43;71.42
69173;BME280;56280;49.662;8.408;2022-08-19T02:39:20;100265.81;;;20.44;71.23
69173;BME280;56280;49.662;8.408;2022-08-19T02:41:45;100234.88;;;20.18;71.56
69173;BME280;56280;49.662;8.408;2022-08-19T02:44:10;100262.56;;;20.27;71.66
69173;BME280;56280;49.662;8.408;2022-08-19T02:46:36;100273.28;;;20.42;70.92
69173;BME280;56280;49.662;8.408;2022-08-19T02:49:05;100278.34;;;20.52;70.38
69173;BME280;56280;49.662;8.408;2022-08-19T02:51:38;100292.81;;;20.66;70.00
69173;BME280;56280;49.662;8.408;2022-08-19T02:54:04;100274.28;;;20.63;69.65
69173;BME280;56280;49.662;8.408;2022-08-19T02:56:30;100278.72;;;20.70;69.46
69173;BME280;56280;49.662;8.408;2022-08-19T02:58:57;100277.06;;;20.69;69.08
69173;BME280;56280;49.662;8.408;2022-08-19T03:01:28;100274.22;;;20.77;69.03
69173;BME280;56280;49.662;8.408;2022-08-19T03:03:55;100276.69;;;20.72;69.10
69173;BME280;56280;49.662;8.408;2022-08-19T03:06:21;100267.53;;;20.73;69.15
69173;BME280;56280;49.662;8.408;2022-08-19T03:08:48;100266.06;;;20.71;68.81
69173;BME280;56280;49.662;8.408;2022-08-19T03:11:17;100274.66;;;20.81;68.68
69173;BME280;56280;49.662;8.408;2022-08-19T03:13:43;100268.78;;;20.71;68.81
69173;BME280;56280;49.662;8.408;2022-08-19T03:16:10;100269.00;;;20.76;68.76
69173;BME280;56280;49.662;8.408;2022-08-19T03:18:36;100276.69;;;20.72;68.88
69173;BME280;56280;49.662;8.408;2022-08-19T03:21:01;100268.38;;;20.74;68.78
69173;BME280;56280;49.662;8.408;2022-08-19T03:23:26;100255.03;;;20.66;68.77
69173;BME280;56280;49.662;8.408;2022-08-19T03:25:52;100267.91;;;20.70;68.52
69173;BME280;56280;49.662;8.408;2022-08-19T03:28:20;100266.66;;;20.66;68.86
69173;BME280;56280;49.662;8.408;2022-08-19T03:31:01;100248.84;;;20.50;68.81
69173;BME280;56280;49.662;8.408;2022-08-19T03:33:28;100276.28;;;20.54;69.46
69173;BME280;56280;49.662;8.408;2022-08-19T03:36:15;100275.16;;;20.42;69.74
69173;BME280;56280;49.662;8.408;2022-08-19T03:38:44;100274.81;;;20.51;69.37
69173;BME280;56280;49.662;8.408;2022-08-19T03:41:14;100268.94;;;20.48;69.48
69173;BME280;56280;49.662;8.408;2022-08-19T03:43:42;100283.97;;;20.57;69.24
69173;BME280;56280;49.662;8.408;2022-08-19T03:46:11;100285.41;;;20.53;69.25
69173;BME280;56280;49.662;8.408;2022-08-19T03:48:38;100271.75;;;20.33;69.59
69173;BME280;56280;49.662;8.408;2022-08-19T03:51:04;100287.22;;;20.46;69.28
69173;BME280;56280;49.662;8.408;2022-08-19T03:53:31;100282.16;;;20.36;69.60
69173;BME280;56280;49.662;8.408;2022-08-19T03:55:57;100287.41;;;20.44;69.48
69173;BME280;56280;49.662;8.408;2022-08-19T03:58:25;100247.03;;;20.08;69.83
69173;BME280;56280;49.662;8.408;2022-08-19T04:00:50;100289.16;;;20.30;69.75
69173;BME280;56280;49.662;8.408;2022-08-19T04:03:17;100284.16;;;20.27;70.08
69173;BME280;56280;49.662;8.408;2022-08-19T04:05:44;100295.31;;;20.24;70.26
69173;BME280;56280;49.662;8.408;2022-08-19T04:08:09;100277.53;;;20.08;70.45
69173;BME280;56280;49.662;8.408;2022-08-19T04:10:38;100282.34;;;20.13;70.91
69173;BME280;56280;49.662;8.408;2022-08-19T04:13:04;100273.72;;;20.02;71.02
69173;BME280;56280;49.662;8.408;2022-08-19T04:15:31;100282.34;;;20.13;70.92
69173;BME280;56280;49.662;8.408;2022-08-19T04:18:01;100280.84;;;20.10;70.91
69173;BME280;56280;49.662;8.408;2022-08-19T04:20:26;100281.44;;;20.06;70.79
69173;BME280;56280;49.662;8.408;2022-08-19T04:22:51;100280.91;;;20.17;70.67
69173;BME280;56280;49.662;8.408;2022-08-19T04:25:17;100288.63;;;20.20;70.47
69173;BME280;56280;49.662;8.408;2022-08-19T04:27:42;100280.16;;;20.23;70.33
69173;BME280;56280;49.662;8.408;2022-08-19T04:30:12;100297.63;;;20.27;70.28
69173;BME280;56280;49.662;8.408;2022-08-19T04:32:37;100286.66;;;20.29;70.32
69173;BME280;56280;49.662;8.408;2022-08-19T04:35:03;100276.31;;;20.32;69.79
69173;BME280;56280;49.662;8.408;2022-08-19T04:37:30;100270.38;;;20.22;69.86
69173;BME280;56280;49.662;8.408;2022-08-19T04:39:58;100283.09;;;20.28;69.90
69173;BME280;56280;49.662;8.408;2022-08-19T04:42:42;100282.19;;;20.43;69.36
69173;BME280;56280;49.662;8.408;2022-08-19T04:45:13;100281.31;;;20.35;69.58
69173;BME280;56280;49.662;8.408;2022-08-19T04:47:41;100296.31;;;20.45;69.60
69173;BME280;56280;49.662;8.408;2022-08-19T04:50:07;100294.28;;;20.47;69.50
69173;BME280;56280;49.662;8.408;2022-08-19T04:52:34;100292.06;;;20.57;69.28
69173;BME280;56280;49.662;8.408;2022-08-19T04:54:59;100278.28;;;20.45;69.07
69173;BME280;56280;49.662;8.408;2022-08-19T04:57:25;100282.06;;;20.51;68.99
69173;BME280;56280;49.662;8.408;2022-08-19T04:59:55;100278.34;;;20.52;69.53
69173;BME280;56280;49.662;8.408;2022-08-19T05:02:20;100283.31;;;20.48;69.47
69173;BME280;56280;49.662;8.408;2022-08-19T05:04:49;100265.28;;;20.27;69.77
69173;BME280;56280;49.662;8.408;2022-08-19T05:07:15;100296.97;;;20.47;69.65
69173;BME280;56280;49.662;8.408;2022-08-19T05:09:40;100302.81;;;20.50;69.77
69173;BME280;56280;49.662;8.408;2022-08-19T05:12:05;100301.94;;;20.43;69.70
69173;BME280;56280;49.662;8.408;2022-08-19T05:14:31;100285.22;;;20.54;69.43
69173;BME280;56280;49.662;8.408;2022-08-19T05:16:56;100306.16;;;20.52;69.47
69173;BME280;56280;49.662;8.408;2022-08-19T05:19:21;100284.13;;;20.49;68.90
69173;BME280;56280;49.662;8.408;2022-08-19T05:22:05;100303.66;;;20.72;68.88
69173;BME280;56280;49.662;8.408;2022-08-19T05:24:49;100307.69;;;20.83;68.45
69173;BME280;56280;49.662;8.408;2022-08-19T05:27:14;100310.06;;;20.93;68.08
69173;BME280;56280;49.662;8.408;2022-08-19T05:29:40;100300.47;;;20.90;68.07
69173;BME280;56280;49.662;8.408;2022-08-19T05:32:06;100297.53;;;20.85;67.70
69173;BME280;56280;49.662;8.408;2022-08-19T05:34:36;100321.97;;;21.05;67.72
69173;BME280;56280;49.662;8.408;2022-08-19T05:37:03;100310.50;;;20.97;67.73
69173;BME280;56280;49.662;8.408;2022-08-19T05:39:36;100318.50;;;21.18;67.43
69173;BME280;56280;49.662;8.408;2022-08-19T05:42:06;100322.69;;;21.21;67.61
69173;BME280;56280;49.662;8.408;2022-08-19T05:44:36;100313.81;;;21.27;66.81
69173;BME280;56280;49.662;8.408;2022-08-19T05:47:04;100313.06;;;21.40;65.99
69173;BME280;56280;49.662;8.408;2022-08-19T05:49:32;100329.84;;;21.35;66.19
69173;BME280;56280;49.662;8.408;2022-08-19T05:51:58;100334.22;;;21.36;66.37
69173;BME280;56280;49.662;8.408;2022-08-19T05:54:25;100334.38;;;21.56;65.92
69173;BME280;56280;49.662;8.408;2022-08-19T05:56:51;100341.38;;;21.51;65.67
69173;BME280;56280;49.662;8.408;2022-08-19T05:59:18;100350.41;;;21.64;65.83
69173;BME280;56280;49.662;8.408;2022-08-19T06:01:47;100352.97;;;21.79;65.18
69173;BME280;56280;49.662;8.408;2022-08-19T06:04:15;100359.28;;;21.93;64.13
69173;BME280;56280;49.662;8.408;2022-08-19T06:06:44;100361.56;;;21.90;63.96
69173;BME280;56280;49.662;8.408;2022-08-19T06:09:09;100378.03;;;22.01;64.34
69173;BME280;56280;49.662;8.408;2022-08-19T06:11:37;100381.38;;;22.17;64.49
69173;BME280;56280;49.662;8.408;2022-08-19T06:14:06;100379.16;;;22.27;63.56
69173;BME280;56280;49.662;8.408;2022-08-19T06:16:34;100383.00;;;22.60;62.07
69173;BME280;56280;49.662;8.408;2022-08-19T06:19:02;100386.94;;;22.57;62.55
69173;BME280;56280;49.662;8.408;2022-08-19T06:21:28;100391.03;;;22.33;62.72
69173;BME280;56280;49.662;8.408;2022-08-19T06:23:55;100389.41;;;22.45;62.19
69173;BME280;56280;49.662;8.408;2022-08-19T06:26:22;100381.09;;;22.53;62.29
69173;BME280;56280;49.662;8.408;2022-08-19T06:28:48;100393.34;;;22.43;63.24
69173;BME280;56280;49.662;8.408;2022-08-19T06:31:15;100387.19;;;22.69;62.30
69173;BME280;56280;49.662;8.408;2022-08-19T06:33:42;100380.72;;;22.76;61.34
69173;BME280;56280;49.662;8.408;2022-08-19T06:36:16;100380.72;;;22.97;61.29
69173;BME280;56280;49.662;8.408;2022-08-19T06:38:41;100383.88;;;23.14;60.66
69173;BME280;56280;49.662;8.408;2022-08-19T06:41:07;100388.19;;;23.55;60.29
69173;BME280;56280;49.662;8.408;2022-08-19T06:43:33;100394.19;;;23.63;60.30
69173;BME280;56280;49.662;8.408;2022-08-19T06:45:58;100390.19;;;23.79;58.47
69173;BME280;56280;49.662;8.408;2022-08-19T06:48:24;100399.72;;;24.02;58.42
69173;BME280;56280;49.662;8.408;2022-08-19T06:50:49;100387.44;;;23.99;58.20
69173;BME280;56280;49.662;8.408;2022-08-19T06:53:16;100369.84;;;23.50;59.15
69173;BME280;56280;49.662;8.408;2022-08-19T06:55:44;100396.69;;;23.85;58.96
69173;BME280;56280;49.662;8.408;2022-08-19T06:58:10;100401.88;;;23.80;58.46
69173;BME280;56280;49.662;8.408;2022-08-19T07:00:36;100389.25;;;23.47;59.08
69173;BME280;56280;49.662;8.408;2022-08-19T07:03:02;100385.31;;;23.29;59.55
69173;BME280;56280;49.662;8.408;2022-08-19T07:05:27;100392.81;;;23.27;59.99
69173;BME280;56280;49.662;8.408;2022-08-19T07:07:53;100395.09;;;23.37;59.73
69173;BME280;56280;49.662;8.408;2022-08-19T07:10:18;100396.53;;;23.53;60.09
69173;BME280;56280;49.662;8.408;2022-08-19T07:12:44;100398.19;;;23.61;59.67
69173;BME280;56280;49.662;8.408;2022-08-19T07:15:10;100399.41;;;23.72;58.96
69173;BME280;56280;49.662;8.408;2022-08-19T07:17:36;100406.28;;;23.74;59.40
69173;BME280;56280;49.662;8.408;2022-08-19T07:20:05;100411.16;;;23.32;59.71
69173;BME280;56280;49.662;8.408;2022-08-19T07:22:36;100389.47;;;23.39;60.07
69173;BME280;56280;49.662;8.408;2022-08-19T07:25:02;100398.78;;;23.63;59.59
69173;BME280;56280;49.662;8.408;2022-08-19T07:27:28;100399.00;;;23.61;59.54
69173;BME280;56280;49.662;8.408;2022-08-19T07:29:54;100404.88;;;23.52;59.83
69173;BME280;56280;49.662;8.408;2022-08-19T07:32:20;100417.41;;;23.33;60.53
69173;BME280;56280;49.662;8.408;2022-08-19T07:34:45;100413.22;;;23.43;60.75
69173;BME280;56280;49.662;8.408;2022-08-19T07:37:11;100415.13;;;23.16;61.24
69173;BME280;56280;49.662;8.408;2022-08-19T07:39:38;100403.44;;;23.49;60.78
69173;BME280;56280;49.662;8.408;2022-08-19T07:42:07;100415.44;;;23.80;59.99
69173;BME280;56280;49.662;8.408;2022-08-19T07:44:33;100407.47;;;23.98;59.45
69173;BME280;56280;49.662;8.408;2022-08-19T07:47:00;100412.09;;;23.91;58.93
69173;BME280;56280;49.662;8.408;2022-08-19T07:49:26;100404.09;;;24.10;59.49
69173;BME280;56280;49.662;8.408;2022-08-19T07:52:00;100424.25;;;24.27;59.20
69173;BME280;56280;49.662;8.408;2022-08-19T07:54:28;100419.13;;;24.51;58.47
69173;BME280;56280;49.662;8.408;2022-08-19T07:56:53;100415.38;;;24.45;58.00
69173;BME280;56280;49.662;8.408;2022-08-19T07:59:19;100424.41;;;24.39;57.60
69173;BME280;56280;49.662;8.408;2022-08-19T08:01:46;100413.31;;;24.40;58.01
69173;BME280;56280;49.662;8.408;2022-08-19T08:04:12;100421.34;;;24.29;57.67
69173;BME280;56280;49.662;8.408;2022-08-19T08:06:56;100415.00;;;24.42;57.76
69173;BME280;56280;49.662;8.408;2022-08-19T08:09:42;100410.09;;;24.64;56.11
69173;BME280;56280;49.662;8.408;2022-08-19T08:12:13;100426.50;;;24.75;56.21
69173;BME280;56280;49.662;8.408;2022-08-19T08:14:48;100413.63;;;24.96;55.26
69173;BME280;56280;49.662;8.408;2022-08-19T08:17:16;100413.47;;;24.91;54.97
69173;BME280;56280;49.662;8.408;2022-08-19T08:19:43;100420.53;;;24.92;55.51
69173;BME280;56280;49.662;8.408;2022-08-19T08:22:10;100418.53;;;24.81;54.94
69173;BME280;56280;49.662;8.408;2022-08-19T08:25:20;100417.41;;;24.63;56.50
69173;BME280;56280;49.662;8.408;2022-08-19T08:27:47;100408.91;;;24.85;55.84
69173;BME280;56280;49.662;8.408;2022-08-19T08:30:17;100422.31;;;24.80;55.75
69173;BME280;56280;49.662;8.408;2022-08-19T08:32:44;100414.38;;;24.78;55.91
69173;BME280;56280;49.662;8.408;2022-08-19T08:35:12;100402.91;;;25.01;55.45
69173;BME280;56280;49.662;8.408;2022-08-19T08:37:38;100432.56;;;24.78;55.86
69173;BME280;56280;49.662;8.408;2022-08-19T08:40:09;100407.16;;;24.65;56.44
69173;BME280;56280;49.662;8.408;2022-08-19T08:42:48;100416.88;;;24.80;55.70
69173;BME280;56280;49.662;8.408;2022-08-19T08:45:16;100408.66;;;25.11;55.37
69173;BME280;56280;49.662;8.408;2022-08-19T08:47:44;100418.41;;;25.01;54.51
69173;BME280;56280;49.662;8.408;2022-08-19T08:50:16;100414.88;;;24.68;55.29
69173;BME280;56280;49.662;8.408;2022-08-19T08:52:49;100407.63;;;24.55;55.66
69173;BME280;56280;49.662;8.408;2022-08-19T08:55:23;100414.34;;;24.85;55.15
69173;BME280;56280;49.662;8.408;2022-08-19T09:02:52;100410.66;;;25.48;52.89
69173;BME280;56280;49.662;8.408;2022-08-19T09:05:20;100400.59;;;25.48;52.91
69173;BME280;56280;49.662;8.408;2022-08-19T09:10:42;100409.84;;;25.66;52.88
69173;BME280;56280;49.662;8.408;2022-08-19T09:16:17;100389.16;;;26.02;50.57
69173;BME280;56280;49.662;8.408;2022-08-19T09:18:49;100383.31;;;25.43;51.99
69173;BME280;56280;49.662;8.408;2022-08-19T09:21:18;100409.56;;;25.93;51.49
69173;BME280;56280;49.662;8.408;2022-08-19T09:23:43;100392.94;;;25.82;51.52
69173;BME280;56280;49.662;8.408;2022-08-19T09:26:15;100408.09;;;25.53;51.43
69173;BME280;56280;49.662;8.408;2022-08-19T09:28:42;100401.66;;;25.29;52.02
69173;BME280;56280;49.662;8.408;2022-08-19T09:31:13;100403.47;;;25.35;52.32
69173;BME280;56280;49.662;8.408;2022-08-19T09:33:39;100397.78;;;25.62;52.29
69173;BME280;56280;49.662;8.408;2022-08-19T09:36:09;100407.53;;;25.70;51.64
69173;BME280;56280;49.662;8.408;2022-08-19T09:38:35;100391.56;;;25.92;50.80
69173;BME280;56280;49.662;8.408;2022-08-19T09:41:05;100397.44;;;25.89;50.92
69173;BME280;56280;49.662;8.408;2022-08-19T09:43:32;100397.56;;;26.00;50.50
69173;BME280;56280;49.662;8.408;2022-08-19T09:45:59;100379.16;;;25.77;50.28
69173;BME280;56280;49.662;8.408;2022-08-19T09:48:25;100382.50;;;25.61;51.11
69173;BME280;56280;49.662;8.408;2022-08-19T09:50:50;100385.22;;;25.61;51.87
69173;BME280;56280;49.662;8.408;2022-08-19T09:53:16;100389.38;;;25.82;51.76
69173;BME280;56280;49.662;8.408;2022-08-19T09:55:42;100394.59;;;25.65;51.61
69173;BME280;56280;49.662;8.408;2022-08-19T09:58:08;100388.97;;;25.60;52.07
69173;BME280;56280;49.662;8.408;2022-08-19T10:00:33;100387.78;;;25.93;50.91
69173;BME280;56280;49.662;8.408;2022-08-19T10:02:59;100399.06;;;25.96;50.91
69173;BME280;56280;49.662;8.408;2022-08-19T10:05:24;100386.72;;;26.12;50.89
69173;BME280;56280;49.662;8.408;2022-08-19T10:08:09;100390.22;;;26.01;50.79
69173;BME280;56280;49.662;8.408;2022-08-19T10:10:35;100391.50;;;25.98;50.13
69173;BME280;56280;49.662;8.408;2022-08-19T10:13:01;100384.31;;;26.04;50.79
69173;BME280;56280;49.662;8.408;2022-08-19T10:15:26;100384.59;;;25.96;49.46
69173;BME280;56280;49.662;8.408;2022-08-19T10:17:51;100388.31;;;26.01;49.47
69173;BME280;56280;49.662;8.408;2022-08-19T10:20:17;100404.56;;;26.08;48.46
69173;BME280;56280;49.662;8.408;2022-08-19T10:22:43;100397.94;;;26.04;48.18
69173;BME280;56280;49.662;8.408;2022-08-19T10:25:08;100408.50;;;26.12;47.01
69173;BME280;56280;49.662;8.408;2022-08-19T10:27:34;100405.44;;;26.39;47.55
69173;BME280;56280;49.662;8.408;2022-08-19T10:29:59;100399.03;;;26.45;47.98
69173;BME280;56280;49.662;8.408;2022-08-19T10:32:24;100401.38;;;26.42;48.32
69173;BME280;56280;49.662;8.408;2022-08-19T10:34:50;100390.88;;;26.15;48.28
69173;BME280;56280;49.662;8.408;2022-08-19T10:37:17;100412.59;;;26.03;48.77
69173;BME280;56280;49.662;8.408;2022-08-19T10:39:45;100417.25;;;25.77;49.20
69173;BME280;56280;49.662;8.408;2022-08-19T10:42:12;100401.78;;;25.78;50.01
69173;BME280;56280;49.662;8.408;2022-08-19T10:44:39;100394.53;;;25.72;49.75
69173;BME280;56280;49.662;8.408;2022-08-19T10:47:04;100395.34;;;26.09;48.93
69173;BME280;56280;49.662;8.408;2022-08-19T10:49:30;100387.28;;;26.02;49.55
69173;BME280;56280;49.662;8.408;2022-08-19T10:51:57;100389.78;;;26.34;47.54
69173;BME280;56280;49.662;8.408;2022-08-19T10:54:41;100383.78;;;26.56;47.44
69173;BME280;56280;49.662;8.408;2022-08-19T10:57:25;100377.19;;;26.22;47.12
69173;BME280;56280;49.662;8.408;2022-08-19T10:59:55;100383.22;;;26.24;47.99
69173;BME280;56280;49.662;8.408;2022-08-19T11:02:20;100354.88;;;26.43;45.70
69173;BME280;56280;49.662;8.408;2022-08-19T11:04:46;100382.38;;;26.96;46.70
69173;BME280;56280;49.662;8.408;2022-08-19T11:07:12;100373.63;;;27.29;45.90
69173;BME280;56280;49.662;8.408;2022-08-19T11:09:40;100378.56;;;26.73;46.41
69173;BME280;56280;49.662;8.408;2022-08-19T11:12:07;100381.50;;;26.41;47.52
69173;BME280;56280;49.662;8.408;2022-08-19T11:14:33;100371.06;;;26.38;47.18
69173;BME280;56280;49.662;8.408;2022-08-19T11:16:58;100364.47;;;26.15;47.21
69173;BME280;56280;49.662;8.408;2022-08-19T11:19:24;100364.84;;;26.19;47.09
69173;BME280;56280;49.662;8.408;2022-08-19T11:21:50;100361.41;;;26.54;47.66
69173;BME280;56280;49.662;8.408;2022-08-19T11:24:22;100345.97;;;26.78;46.55
69173;BME280;56280;49.662;8.408;2022-08-19T11:26:50;100327.38;;;26.99;46.96
69173;BME280;56280;49.662;8.408;2022-08-19T11:29:16;100343.47;;;27.24;45.25
69173;BME280;56280;49.662;8.408;2022-08-19T11:31:45;100331.06;;;26.92;45.25
69173;BME280;56280;49.662;8.408;2022-08-19T11:34:15;100338.03;;;26.88;43.55
69173;BME280;56280;49.662;8.408;2022-08-19T11:36:43;100335.19;;;26.71;42.86
69173;BME280;56280;49.662;8.408;2022-08-19T11:39:12;100325.84;;;26.79;43.01
69173;BME280;56280;49.662;8.408;2022-08-19T11:41:38;100324.78;;;26.92;42.53
69173;BME280;56280;49.662;8.408;2022-08-19T11:44:04;100321.09;;;26.98;43.03
69173;BME280;56280;49.662;8.408;2022-08-19T11:46:30;100305.94;;;27.02;42.04
69173;BME280;56280;49.662;8.408;2022-08-19T11:48:56;100306.38;;;27.23;42.70
69173;BME280;56280;49.662;8.408;2022-08-19T11:51:23;100311.22;;;27.44;41.75
69173;BME280;56280;49.662;8.408;2022-08-19T11:53:53;100320.09;;;27.63;40.31
69173;BME280;56280;49.662;8.408;2022-08-19T11:56:19;100319.06;;;27.29;40.40
69173;BME280;56280;49.662;8.408;2022-08-19T11:58:45;100309.56;;;27.43;41.83
69173;BME280;56280;49.662;8.408;2022-08-19T12:01:13;100308.00;;;28.00;42.36
69173;BME280;56280;49.662;8.408;2022-08-19T12:03:41;100310.50;;;28.18;38.67
69173;BME280;56280;49.662;8.408;2022-08-19T12:06:10;100304.09;;;27.55;39.29
69173;BME280;56280;49.662;8.408;2022-08-19T12:08:36;100313.03;;;27.03;39.82
69173;BME280;56280;49.662;8.408;2022-08-19T12:11:02;100290.03;;;27.11;40.30
69173;BME280;56280;49.662;8.408;2022-08-19T12:13:29;100311.91;;;27.63;38.11
69173;BME280;56280;49.662;8.408;2022-08-19T12:15:55;100316.81;;;27.90;37.18
69173;BME280;56280;49.662;8.408;2022-08-19T12:18:22;100320.06;;;28.33;37.19
69173;BME280;56280;49.662;8.408;2022-08-19T12:20:47;100322.56;;;28.51;36.30
69173;BME280;56280;49.662;8.408;2022-08-19T12:23:16;100309.47;;;28.53;37.35
69173;BME280;56280;49.662;8.408;2022-08-19T12:25:46;100311.78;;;28.45;35.49
69173;BME280;56280;49.662;8.408;2022-08-19T12:28:16;100312.22;;;28.53;36.65
69173;BME280;56280;49.662;8.408;2022-08-19T12:30:41;100310.06;;;28.55;34.71
69173;BME280;56280;49.662;8.408;2022-08-19T12:33:07;100321.16;;;28.49;34.84
69173;BME280;56280;49.662;8.408;2022-08-19T12:35:32;100318.75;;;28.35;35.99
69173;BME280;56280;49.662;8.408;2022-08-19T12:37:58;100295.47;;;28.16;36.04
69173;BME280;56280;49.662;8.408;2022-08-19T12:40:24;100306.13;;;28.17;36.93
69173;BME280;56280;49.662;8.408;2022-08-19T12:42:50;100313.03;;;27.79;36.51
69173;BME280;56280;49.662;8.408;2022-08-19T12:45:16;100302.59;;;27.76;35.82
69173;BME280;56280;49.662;8.408;2022-08-19T12:47:41;100310.59;;;28.07;36.24
69173;BME280;56280;49.662;8.408;2022-08-19T12:50:07;100294.69;;;28.04;35.71
69173;BME280;56280;49.662;8.408;2022-08-19T12:52:37;100307.72;;;28.30;36.11
69173;BME280;56280;49.662;8.408;2022-08-19T12:55:05;100260.38;;;28.25;36.20
69173;BME280;56280;49.662;8.408;2022-08-19T12:57:30;100305.66;;;28.54;35.86
69173;BME280;56280;49.662;8.408;2022-08-19T12:59:59;100303.38;;;28.17;35.73
69173;BME280;56280;49.662;8.408;2022-08-19T13:02:24;100303.34;;;28.29;36.09
69173;BME280;56280;49.662;8.408;2022-08-19T13:04:49;100315.66;;;28.15;35.58